Time;durP1;ratioP1;P1;durP2;ratioP2;P2;SDS_P1;SDS_P2;PMS_P1;PMS_P2;Temp;Humidity;BMP_temperature;BMP_pressure;BME280_temperature;BME280_humidity;BME280_pressure;Samples;Min_cycle;Max_cycle;Signal;HPM_P1;HPM_P2
2022/07/16 00:03:12;;;;;;;4.65;2.35;;;;;;;12.07;60.92;101758.31;4985588;28;20045;-69
2022/07/16 00:05:38;;;;;;;5.93;2.17;;;;;;;12.01;61.39;101764.59;4990421;28;20046;-70
2022/07/16 00:08:04;;;;;;;3.58;1.70;;;;;;;12.31;60.29;101763.63;5001301;28;20133;-71
2022/07/16 00:10:29;;;;;;;4.40;1.38;;;;;;;12.28;60.41;101759.34;5004722;28;20061;-74
2022/07/16 00:12:54;;;;;;;3.28;2.15;;;;;;;12.40;60.12;101765.94;4985429;28;20388;-72
2022/07/16 00:15:20;;;;;;;8.82;2.42;;;;;;;12.11;61.04;101759.06;4989539;28;20491;-69
2022/07/16 00:17:45;;;;;;;2.90;1.50;;;;;;;12.12;61.03;101756.38;4988466;28;20431;-68
2022/07/16 00:20:11;;;;;;;2.47;2.10;;;;;;;12.05;61.68;101757.50;4989774;28;20061;-67
2022/07/16 00:22:36;;;;;;;3.95;1.55;;;;;;;12.33;61.15;101772.31;4989473;28;20411;-67
2022/07/16 00:25:03;;;;;;;2.83;1.77;;;;;;;12.26;61.20;101769.88;4988175;28;20026;-67
2022/07/16 00:27:29;;;;;;;5.10;2.40;;;;;;;12.52;60.49;101765.56;4957547;28;20052;-73
2022/07/16 00:29:54;;;;;;;3.55;1.75;;;;;;;12.35;61.13;101765.25;4984803;28;20033;-72
2022/07/16 00:32:19;;;;;;;10.10;2.08;;;;;;;12.25;61.70;101770.81;5004325;28;20044;-73
2022/07/16 00:34:45;;;;;;;4.03;1.33;;;;;;;12.53;61.08;101774.28;4991061;28;20026;-74
2022/07/16 00:37:11;;;;;;;6.40;1.58;;;;;;;12.54;60.88;101781.25;5001067;28;20748;-73
2022/07/16 00:39:36;;;;;;;3.70;0.93;;;;;;;12.52;61.47;101778.66;4980585;28;20792;-74
2022/07/16 00:42:01;;;;;;;9.45;2.10;;;;;;;12.83;60.52;101773.25;4990637;28;20080;-74
2022/07/16 00:44:27;;;;;;;11.52;0.80;;;;;;;12.84;60.26;101784.59;4985514;28;20049;-74
2022/07/16 00:46:52;;;;;;;5.70;0.50;;;;;;;12.63;61.04;101778.31;4988162;28;20042;-75
2022/07/16 00:49:19;;;;;;;5.97;0.60;;;;;;;12.74;60.80;101789.31;4992701;28;20076;-76
2022/07/16 00:51:47;;;;;;;2.25;0.38;;;;;;;12.73;60.30;101786.72;5005969;28;20049;-75
2022/07/16 00:54:13;;;;;;;2.28;0.22;;;;;;;12.54;60.43;101782.09;4989780;28;20319;-74
2022/07/16 00:56:40;;;;;;;3.10;0.30;;;;;;;12.70;59.89;101783.31;5005667;28;20504;-74
2022/07/16 00:59:05;;;;;;;1.85;0.20;;;;;;;12.58;59.83;101781.09;4991551;28;20247;-73
2022/07/16 01:01:31;;;;;;;2.42;0.60;;;;;;;12.62;59.21;101784.44;4985229;28;20526;-70
2022/07/16 01:03:57;;;;;;;3.60;0.28;;;;;;;12.72;58.91;101787.66;4985831;28;21220;-70
2022/07/16 01:06:23;;;;;;;2.85;0.25;;;;;;;12.65;59.10;101785.22;4987782;28;20127;-70
2022/07/16 01:08:49;;;;;;;0.98;0.30;;;;;;;12.50;59.42;101796.22;5006942;28;20046;-72
2022/07/16 01:11:17;;;;;;;5.35;0.55;;;;;;;12.64;58.77;101793.97;4991106;28;20479;-73
2022/07/16 01:13:47;;;;;;;2.17;0.60;;;;;;;12.43;59.13;101800.81;5004225;28;20066;-73
2022/07/16 01:16:13;;;;;;;5.55;0.38;;;;;;;12.63;58.57;101797.50;4985794;28;20125;-68
2022/07/16 01:18:41;;;;;;;5.65;0.38;;;;;;;12.65;58.35;101795.69;4986550;28;20042;-67
2022/07/16 01:21:07;;;;;;;5.93;0.77;;;;;;;12.68;58.29;101799.97;4988682;28;20076;-68
2022/07/16 01:23:32;;;;;;;3.90;0.40;;;;;;;12.57;58.61;101802.97;4996973;28;20500;-68
2022/07/16 01:25:58;;;;;;;1.65;0.20;;;;;;;12.65;58.74;101798.31;4986138;28;20553;-68
2022/07/16 01:28:23;;;;;;;1.98;0.38;;;;;;;12.77;58.04;101809.34;4986006;28;20038;-68
2022/07/16 01:30:49;;;;;;;2.88;0.40;;;;;;;12.68;58.03;101811.31;4988002;28;20493;-68
2022/07/16 01:33:25;;;;;;;4.38;0.40;;;;;;;12.66;57.97;101805.25;4985796;28;20418;-69
2022/07/16 01:35:56;;;;;;;1.10;0.47;;;;;;;12.66;58.25;101802.63;4986613;28;20529;-69
2022/07/16 01:38:22;;;;;;;2.53;0.30;;;;;;;12.53;57.97;101803.97;4988486;28;20137;-69
2022/07/16 01:40:48;;;;;;;2.13;0.25;;;;;;;12.53;57.97;101811.81;5001812;28;20066;-69
2022/07/16 01:43:18;;;;;;;1.50;0.35;;;;;;;12.50;58.14;101807.56;4996774;28;20125;-69
2022/07/16 01:45:44;;;;;;;2.67;0.30;;;;;;;12.46;58.23;101810.31;4987947;28;20041;-69
2022/07/16 01:48:11;;;;;;;5.57;0.30;;;;;;;12.51;58.16;101803.16;4998738;28;20120;-69
2022/07/16 01:50:37;;;;;;;1.88;0.52;;;;;;;12.39;58.84;101811.44;4999267;28;20050;-75
2022/07/16 01:53:03;;;;;;;0.88;0.40;;;;;;;12.56;58.27;101816.09;4984778;28;20049;-67
2022/07/16 01:55:29;;;;;;;1.98;0.20;;;;;;;12.53;57.90;101817.06;4998792;28;20640;-68
2022/07/16 01:57:55;;;;;;;1.73;0.30;;;;;;;12.60;57.41;101821.22;4986920;28;20184;-68
2022/07/16 02:00:21;;;;;;;3.28;0.50;;;;;;;12.55;57.53;101820.50;4988069;28;20042;-68
2022/07/16 02:02:46;;;;;;;3.47;0.40;;;;;;;12.53;57.13;101821.47;5000090;28;20045;-68
2022/07/16 02:05:12;;;;;;;4.28;0.50;;;;;;;12.40;57.67;101821.00;4986034;28;20025;-68
2022/07/16 02:07:39;;;;;;;1.80;0.50;;;;;;;12.26;57.95;101822.31;4987640;28;20512;-68
2022/07/16 02:10:05;;;;;;;2.78;0.30;;;;;;;12.16;58.16;101823.53;4980629;28;20037;-67
2022/07/16 02:12:30;;;;;;;2.70;0.38;;;;;;;12.22;57.89;101820.72;4986135;28;20038;-68
2022/07/16 02:14:56;;;;;;;2.35;0.30;;;;;;;12.14;58.20;101827.97;4982919;28;20019;-68
2022/07/16 02:17:21;;;;;;;2.90;0.40;;;;;;;12.16;57.91;101827.91;4999212;28;20077;-69
2022/07/16 02:19:47;;;;;;;0.63;0.20;;;;;;;12.14;57.78;101829.72;4986861;28;20677;-69
2022/07/16 02:22:14;;;;;;;2.05;0.25;;;;;;;12.05;58.06;101838.72;4987379;28;20326;-69
2022/07/16 02:24:40;;;;;;;1.33;0.45;;;;;;;12.05;57.67;101823.00;4988424;28;20356;-69
2022/07/16 02:27:06;;;;;;;1.83;0.20;;;;;;;11.86;58.41;101827.94;4984333;28;20534;-69
2022/07/16 02:29:32;;;;;;;2.58;0.43;;;;;;;11.95;58.20;101835.50;5004268;28;20448;-70
2022/07/16 02:31:57;;;;;;;6.60;1.45;;;;;;;11.86;58.21;101827.94;4995322;28;20060;-70
2022/07/16 02:34:23;;;;;;;4.10;0.15;;;;;;;11.93;57.79;101831.22;4985804;28;20034;-69
2022/07/16 02:36:48;;;;;;;1.13;0.10;;;;;;;11.90;57.73;101836.56;4985494;28;20774;-70
2022/07/16 02:39:16;;;;;;;7.15;0.63;;;;;;;11.85;57.66;101839.34;4986021;28;20141;-70
2022/07/16 02:41:42;;;;;;;1.83;0.30;;;;;;;11.86;57.85;101831.41;4986265;28;20046;-69
2022/07/16 02:44:07;;;;;;;1.92;0.22;;;;;;;11.74;57.71;101834.38;4985401;28;20061;-71
2022/07/16 02:46:33;;;;;;;3.88;0.38;;;;;;;11.80;57.63;101847.34;5003333;28;20522;-72
2022/07/16 02:48:58;;;;;;;5.40;0.38;;;;;;;11.61;58.19;101846.97;4986499;28;20104;-72
2022/07/16 02:51:23;;;;;;;2.88;0.40;;;;;;;11.80;57.19;101836.00;4991614;28;20038;-73
2022/07/16 02:53:49;;;;;;;3.22;0.30;;;;;;;11.74;56.96;101847.47;4998677;28;20048;-74
2022/07/16 02:56:15;;;;;;;1.50;0.20;;;;;;;11.67;57.08;101852.03;5004665;28;20495;-68
2022/07/16 02:58:40;;;;;;;2.78;0.17;;;;;;;11.72;56.85;101854.50;4984832;28;20488;-69
2022/07/16 03:01:07;;;;;;;2.10;0.40;;;;;;;11.72;56.93;101851.03;4964650;28;20036;-67
2022/07/16 03:03:32;;;;;;;6.90;0.50;;;;;;;11.71;56.99;101847.56;4987545;28;20133;-69
2022/07/16 03:05:57;;;;;;;4.63;0.30;;;;;;;11.64;57.37;101840.78;4984637;28;20037;-69
2022/07/16 03:08:23;;;;;;;4.45;0.30;;;;;;;11.64;57.12;101836.41;4987919;28;20038;-69
2022/07/16 03:10:48;;;;;;;1.17;0.30;;;;;;;11.63;56.92;101841.69;4987890;28;20029;-69
2022/07/16 03:13:15;;;;;;;0.90;0.30;;;;;;;11.64;57.07;101846.00;5000869;28;20034;-69
2022/07/16 03:15:41;;;;;;;5.22;0.40;;;;;;;11.65;56.99;101839.88;4990549;28;20125;-70
2022/07/16 03:18:06;;;;;;;6.70;0.35;;;;;;;11.48;57.10;101842.97;4987598;28;20052;-69
2022/07/16 03:20:32;;;;;;;2.67;0.45;;;;;;;11.35;57.96;101852.97;4991247;28;20038;-69
2022/07/16 03:22:57;;;;;;;4.70;0.30;;;;;;;11.45;57.18;101846.53;4987912;28;20421;-68
2022/07/16 03:25:22;;;;;;;0.90;0.20;;;;;;;11.43;57.42;101855.34;4986116;28;20037;-69
2022/07/16 03:27:48;;;;;;;1.98;0.20;;;;;;;11.41;57.43;101855.38;4989010;28;20121;-68
2022/07/16 03:30:17;;;;;;;6.93;0.40;;;;;;;11.51;57.28;101856.00;4987622;28;20061;-68
2022/07/16 03:32:42;;;;;;;1.08;0.30;;;;;;;11.56;57.09;101864.56;4985074;28;20042;-69
2022/07/16 03:35:09;;;;;;;2.75;0.20;;;;;;;11.63;57.43;101865.25;4992024;28;20144;-68
2022/07/16 03:38:57;;;;;;;1.98;0.40;;;;;;;11.65;57.24;101866.06;4999206;28;20446;-70
2022/07/16 03:40:21;;;;;;;2.65;0.40;;;;;;;11.78;57.12;101867.47;4991793;28;20399;-69
2022/07/16 03:42:46;;;;;;;1.92;0.70;;;;;;;11.80;56.68;101864.81;4989342;28;20045;-70
2022/07/16 03:45:12;;;;;;;2.65;0.20;;;;;;;11.78;56.87;101874.47;5005955;28;20033;-69
2022/07/16 03:47:37;;;;;;;2.65;0.30;;;;;;;11.86;56.85;101878.56;4987072;28;20525;-69
2022/07/16 03:50:03;;;;;;;5.30;0.45;;;;;;;12.03;56.63;101890.31;4987836;28;20038;-70
2022/07/16 03:52:29;;;;;;;10.55;0.47;;;;;;;12.03;56.80;101885.06;4988514;28;20815;-72
2022/07/16 03:54:54;;;;;;;2.00;0.40;;;;;;;12.16;56.53;101894.28;4987480;28;20026;-71
2022/07/16 03:57:20;;;;;;;4.95;0.60;;;;;;;12.17;56.51;101888.13;4990388;28;20655;-71
2022/07/16 03:59:45;;;;;;;1.02;0.30;;;;;;;12.16;56.38;101893.44;4989977;28;20458;-73
2022/07/16 04:02:10;;;;;;;3.88;0.40;;;;;;;12.03;56.74;101890.31;4991231;28;20048;-73
2022/07/16 04:04:36;;;;;;;2.40;0.47;;;;;;;11.83;57.37;101894.38;4984674;28;20038;-73
2022/07/16 04:07:01;;;;;;;2.08;0.40;;;;;;;11.85;57.45;101899.59;4999370;28;20045;-72
2022/07/16 04:09:27;;;;;;;1.75;0.30;;;;;;;11.88;56.92;101902.94;4992352;28;20026;-73
2022/07/16 04:11:53;;;;;;;2.65;0.50;;;;;;;11.81;57.49;101901.41;4991405;28;20455;-72
2022/07/16 04:14:18;;;;;;;4.00;0.90;;;;;;;11.79;57.53;101903.22;4990364;28;20034;-72
2022/07/16 04:16:44;;;;;;;5.47;0.90;;;;;;;11.75;57.98;101912.03;5001018;28;20129;-71
2022/07/16 04:19:09;;;;;;;4.50;0.40;;;;;;;11.79;57.78;101905.00;4990627;28;20045;-71
2022/07/16 04:21:35;;;;;;;2.67;0.70;;;;;;;11.94;57.80;101917.66;4990472;28;20132;-72
2022/07/16 04:24:00;;;;;;;6.38;0.70;;;;;;;11.97;57.34;101917.53;4997415;28;20176;-72
2022/07/16 04:26:26;;;;;;;1.50;0.55;;;;;;;12.53;56.00;101905.38;4989631;28;20494;-74
2022/07/16 04:28:51;;;;;;;3.10;0.35;;;;;;;12.67;55.39;101909.28;4997090;28;20040;-72
2022/07/16 04:31:17;;;;;;;7.32;0.60;;;;;;;12.83;54.87;101914.06;4968781;28;20702;-75
2022/07/16 04:33:42;;;;;;;8.27;0.50;;;;;;;12.91;54.26;101917.28;4986158;28;20052;-71
2022/07/16 04:36:08;;;;;;;1.90;0.47;;;;;;;12.55;54.04;101925.41;4992033;28;20117;-73
2022/07/16 04:38:33;;;;;;;1.65;0.25;;;;;;;12.70;53.73;101919.69;4983874;28;20046;-72
2022/07/16 04:40:59;;;;;;;5.18;0.20;;;;;;;12.71;53.94;101920.56;5005230;28;20545;-74
2022/07/16 04:43:24;;;;;;;4.55;0.28;;;;;;;12.75;53.57;101927.41;5006380;28;20499;-73
2022/07/16 04:45:50;;;;;;;6.38;0.95;;;;;;;12.87;53.08;101931.41;4993251;28;20046;-73
2022/07/16 04:48:15;;;;;;;3.38;0.30;;;;;;;12.82;52.63;101930.69;4990458;28;20100;-72
2022/07/16 04:50:41;;;;;;;3.80;0.20;;;;;;;12.52;53.03;101938.63;4989744;28;20045;-73
2022/07/16 04:53:07;;;;;;;4.30;0.30;;;;;;;12.64;52.75;101943.47;4989328;28;20040;-73
2022/07/16 04:55:32;;;;;;;1.05;0.32;;;;;;;12.75;52.73;101943.16;5004627;28;20029;-73
2022/07/16 04:57:58;;;;;;;2.25;0.50;;;;;;;12.77;52.73;101940.50;5000502;28;20080;-74
2022/07/16 05:00:23;;;;;;;3.90;0.17;;;;;;;12.69;52.80;101956.47;5005471;28;20034;-72
2022/07/16 05:02:58;;;;;;;5.97;1.05;;;;;;;12.48;53.63;101957.97;4989532;28;20050;-69
2022/07/16 05:05:32;;;;;;;14.35;1.17;;;;;;;12.44;53.71;101975.56;4987036;28;20030;-69
2022/07/16 05:07:58;;;;;;;12.75;0.80;;;;;;;12.50;53.13;101970.13;5001833;28;20057;-69
2022/07/16 05:10:24;;;;;;;7.05;0.60;;;;;;;12.89;51.00;101967.19;4989820;28;20041;-69
2022/07/16 05:12:51;;;;;;;7.05;0.68;;;;;;;12.64;51.31;101982.81;5001542;28;20454;-71
2022/07/16 05:15:16;;;;;;;6.65;0.43;;;;;;;12.58;51.04;101985.63;4984981;28;20144;-70
2022/07/16 05:17:42;;;;;;;6.78;0.50;;;;;;;12.57;50.08;101990.94;5001201;28;20054;-69
2022/07/16 05:20:08;;;;;;;3.97;0.20;;;;;;;12.05;50.23;101988.94;4988985;28;20025;-70
2022/07/16 05:22:34;;;;;;;12.18;0.50;;;;;;;12.43;48.97;101993.97;4998592;28;20034;-69
2022/07/16 05:24:59;;;;;;;2.80;0.20;;;;;;;12.48;48.96;101992.06;5001567;28;20563;-69
2022/07/16 05:27:25;;;;;;;7.13;0.65;;;;;;;12.69;48.05;102001.06;4983459;28;20571;-69
2022/07/16 05:29:50;;;;;;;5.32;0.22;;;;;;;12.52;48.33;102011.19;4987404;28;20038;-69
2022/07/16 05:32:16;;;;;;;3.55;0.22;;;;;;;12.61;46.89;102006.50;4985383;28;20046;-70
2022/07/16 05:34:41;;;;;;;7.10;0.75;;;;;;;16.03;39.87;102013.06;4984758;28;20044;-69
2022/07/16 05:37:06;;;;;;;2.65;0.30;;;;;;;17.50;35.91;102005.16;4986506;28;20061;-70
2022/07/16 05:39:32;;;;;;;4.57;0.38;;;;;;;18.66;32.98;102005.97;4999827;28;20057;-71
2022/07/16 05:41:57;;;;;;;3.97;0.10;;;;;;;19.06;31.66;102005.50;5004288;28;20076;-72
2022/07/16 05:44:23;;;;;;;5.07;0.52;;;;;;;18.97;31.42;102004.25;4987871;28;20069;-70
2022/07/16 05:46:48;;;;;;;6.03;0.40;;;;;;;19.67;30.92;102001.84;4987564;28;20138;-72
2022/07/16 05:49:14;;;;;;;3.35;0.50;;;;;;;20.80;29.27;102008.94;4987171;28;20044;-73
2022/07/16 05:51:39;;;;;;;2.58;0.20;;;;;;;21.73;27.79;102001.75;4985787;28;20043;-71
2022/07/16 05:54:05;;;;;;;3.75;0.17;;;;;;;19.90;29.63;102004.91;4998109;28;20499;-71
2022/07/16 05:56:31;;;;;;;4.20;0.30;;;;;;;20.68;29.20;102020.34;5001539;28;20115;-71
2022/07/16 05:59:02;;;;;;;5.53;0.20;;;;;;;21.29;27.53;102015.47;4987275;28;20824;-72
2022/07/16 06:01:28;;;;;;;1.75;0.20;;;;;;;21.79;27.22;102020.94;5001017;28;20990;-72
2022/07/16 06:03:53;;;;;;;5.30;0.73;;;;;;;22.03;27.53;102016.53;4987121;28;20061;-72
2022/07/16 06:06:19;;;;;;;5.35;0.38;;;;;;;21.14;27.28;102023.50;4988302;28;20054;-71
2022/07/16 06:08:44;;;;;;;4.15;0.17;;;;;;;21.53;27.39;102021.78;4987533;28;20084;-71
2022/07/16 06:11:10;;;;;;;6.82;0.30;;;;;;;21.19;27.25;102031.16;4983257;28;20048;-71
2022/07/16 06:13:36;;;;;;;2.10;0.30;;;;;;;21.06;27.45;102027.63;4997971;28;20049;-71
2022/07/16 06:16:02;;;;;;;2.67;0.20;;;;;;;20.81;27.62;102031.03;4986331;28;20073;-71
2022/07/16 06:18:28;;;;;;;3.17;0.20;;;;;;;20.99;27.28;102031.66;4986375;28;20217;-70
2022/07/16 06:20:53;;;;;;;4.70;1.20;;;;;;;21.54;26.57;102031.47;5002854;28;20030;-72
2022/07/16 06:23:19;;;;;;;7.03;0.50;;;;;;;21.33;26.12;102039.09;5002102;28;20045;-73
2022/07/16 06:25:44;;;;;;;8.68;0.20;;;;;;;22.20;25.97;102033.16;4987261;28;20128;-70
2022/07/16 06:28:10;;;;;;;2.78;0.30;;;;;;;22.05;25.86;102035.03;4987003;28;20046;-73
2022/07/16 06:30:35;;;;;;;3.55;0.40;;;;;;;22.14;25.06;102043.28;4990551;28;20495;-71
2022/07/16 06:33:01;;;;;;;1.45;0.40;;;;;;;21.62;25.44;102052.19;4985933;28;20133;-72
2022/07/16 06:35:26;;;;;;;2.72;0.43;;;;;;;20.49;26.94;102053.41;4987626;28;20331;-72
2022/07/16 06:37:52;;;;;;;4.35;0.20;;;;;;;18.31;30.75;102066.16;4984078;28;20069;-72
2022/07/16 06:40:17;;;;;;;7.47;0.85;;;;;;;16.34;34.60;102067.91;4986023;28;20104;-70
2022/07/16 06:42:43;;;;;;;7.38;1.38;;;;;;;14.69;38.55;102073.88;4985354;28;20050;-69
2022/07/16 06:45:09;;;;;;;5.13;0.40;;;;;;;13.93;41.17;102078.38;4985735;28;20041;-68
2022/07/16 06:47:35;;;;;;;4.53;0.75;;;;;;;14.14;40.31;102075.91;5001045;28;20779;-68
2022/07/16 06:50:01;;;;;;;6.70;0.98;;;;;;;14.53;40.25;102083.28;4988134;28;20045;-69
2022/07/16 06:52:26;;;;;;;6.68;0.60;;;;;;;15.24;39.10;102077.91;4990024;28;20455;-68
2022/07/16 06:54:52;;;;;;;3.40;0.28;;;;;;;16.23;36.52;102078.09;4990355;28;20069;-68
2022/07/16 06:57:18;;;;;;;3.95;0.52;;;;;;;15.58;37.33;102093.19;4987987;28;20491;-68
2022/07/16 06:59:44;;;;;;;12.98;0.82;;;;;;;14.02;40.02;102097.38;4992361;28;20033;-68
2022/07/16 07:02:10;;;;;;;2.63;0.10;;;;;;;13.64;42.50;102108.28;4987289;28;20076;-68
2022/07/16 07:04:35;;;;;;;4.90;0.28;;;;;;;13.52;43.05;102113.94;4983303;28;20128;-68
2022/07/16 07:07:01;;;;;;;5.57;0.30;;;;;;;13.55;43.36;102115.59;4968764;28;20065;-68
2022/07/16 07:09:27;;;;;;;2.47;0.20;;;;;;;13.48;43.56;102123.66;5006612;28;21086;-68
2022/07/16 07:11:52;;;;;;;3.78;0.20;;;;;;;13.63;43.48;102122.34;4991059;28;20115;-69
2022/07/16 07:14:18;;;;;;;4.18;0.32;;;;;;;13.21;44.23;102124.56;4988655;28;20036;-68
2022/07/16 07:16:43;;;;;;;5.30;0.30;;;;;;;13.91;43.35;102117.00;5000354;28;20038;-69
2022/07/16 07:19:09;;;;;;;6.72;0.10;;;;;;;16.90;39.05;102126.94;5004584;28;21157;-68
2022/07/16 07:21:35;;;;;;;5.88;0.60;;;;;;;21.06;30.32;102116.19;4990684;28;20092;-68
2022/07/16 07:24:01;;;;;;;3.33;0.20;;;;;;;23.04;26.75;102114.13;4981189;28;20503;-68
2022/07/16 07:26:27;;;;;;;2.28;0.47;;;;;;;23.34;25.04;102116.31;4990478;28;20060;-72
2022/07/16 07:28:53;;;;;;;6.45;0.30;;;;;;;22.95;24.80;102121.81;4986602;28;20058;-69
2022/07/16 07:31:19;;;;;;;5.13;0.30;;;;;;;22.91;24.02;102125.69;4990803;28;20077;-68
2022/07/16 07:33:45;;;;;;;2.17;0.10;;;;;;;23.65;23.53;102120.19;4985082;28;20133;-68
2022/07/16 07:36:10;;;;;;;0.68;0.10;;;;;;;23.76;23.51;102125.56;5006234;28;20069;-68
2022/07/16 07:38:36;;;;;;;3.67;0.35;;;;;;;23.27;23.10;102131.94;4990014;28;20042;-68
2022/07/16 07:41:03;;;;;;;2.70;0.20;;;;;;;23.83;22.90;102126.81;4989571;28;20616;-68
2022/07/16 07:43:28;;;;;;;3.63;0.22;;;;;;;24.33;22.57;102133.66;4989681;28;20062;-68
2022/07/16 07:45:53;;;;;;;5.07;0.82;;;;;;;21.69;24.96;102140.44;4984600;28;20494;-69
2022/07/16 07:48:19;;;;;;;6.43;0.20;;;;;;;22.09;24.52;102117.31;5007217;28;20513;-69
2022/07/16 07:50:44;;;;;;;0.90;0.22;;;;;;;22.31;25.08;102131.75;5005631;28;20049;-68
2022/07/16 07:53:10;;;;;;;2.30;0.30;;;;;;;23.39;24.40;102138.19;5003704;28;20042;-68
2022/07/16 07:55:37;;;;;;;6.72;0.52;;;;;;;23.60;23.61;102144.56;5001661;28;20573;-69
2022/07/16 07:58:03;;;;;;;6.18;0.65;;;;;;;22.83;24.55;102152.06;4984122;28;20046;-69
2022/07/16 08:00:29;;;;;;;3.58;0.30;;;;;;;22.14;25.46;102144.47;5004860;28;20044;-68
2022/07/16 08:02:55;;;;;;;5.32;0.32;;;;;;;19.62;28.04;102157.75;4982581;28;20069;-69
2022/07/16 08:05:22;;;;;;;5.43;0.47;;;;;;;17.93;31.03;102161.59;5001678;28;20030;-69
2022/07/16 08:07:47;;;;;;;7.45;0.28;;;;;;;15.85;36.90;102170.25;4986138;28;20100;-68
2022/07/16 08:10:13;;;;;;;4.32;0.40;;;;;;;15.23;38.94;102177.13;4989354;28;20026;-68
2022/07/16 08:12:40;;;;;;;5.00;0.38;;;;;;;15.20;38.88;102171.97;4987307;28;20053;-69
2022/07/16 08:15:06;;;;;;;2.38;0.20;;;;;;;15.38;37.84;102173.91;4989065;28;20040;-68
2022/07/16 08:17:32;;;;;;;8.00;0.30;;;;;;;15.23;38.45;102178.91;4986639;28;20042;-70
2022/07/16 08:19:57;;;;;;;2.15;0.57;;;;;;;15.76;37.25;102174.13;5002593;28;20034;-68
2022/07/16 08:22:23;;;;;;;1.95;0.20;;;;;;;15.88;36.38;102180.66;5003862;28;20154;-66
2022/07/16 08:27:32;;;;;;;5.68;0.85;;;;;;;16.57;35.42;102187.41;4986496;28;20096;-68
2022/07/16 08:29:57;;;;;;;3.08;0.38;;;;;;;16.17;35.08;102186.50;4989974;28;20034;-67
2022/07/16 08:32:23;;;;;;;2.25;0.10;;;;;;;16.35;35.07;102193.66;4989553;28;20041;-67
2022/07/16 08:34:50;;;;;;;2.42;0.30;;;;;;;17.31;34.44;102189.31;4994938;28;20050;-67
2022/07/16 08:37:35;;;;;;;2.33;0.10;;;;;;;18.56;32.19;102186.59;4987822;28;20050;-67
2022/07/16 08:40:03;;;;;;;1.90;0.10;;;;;;;19.51;29.95;102189.31;4986212;28;20073;-68
2022/07/16 08:42:29;;;;;;;1.75;0.10;;;;;;;18.57;32.20;102194.47;4987412;28;20590;-68
2022/07/16 08:44:57;;;;;;;2.97;0.20;;;;;;;18.20;32.01;102195.53;4984952;28;20026;-68
2022/07/16 08:47:23;;;;;;;6.75;0.82;;;;;;;18.16;32.63;102199.22;5002192;28;20653;-68
2022/07/16 08:49:49;;;;;;;5.05;0.50;;;;;;;19.84;31.33;102194.50;4982592;28;20100;-68
2022/07/16 08:52:15;;;;;;;3.08;0.10;;;;;;;20.44;29.34;102198.03;4999646;28;20506;-68
2022/07/16 08:54:42;;;;;;;2.80;0.20;;;;;;;18.61;31.54;102197.81;4998052;28;20161;-68
2022/07/16 08:57:08;;;;;;;6.53;0.52;;;;;;;17.28;33.63;102210.59;4988023;28;20417;-68
2022/07/16 08:59:36;;;;;;;8.40;0.82;;;;;;;17.75;33.53;102226.84;4987296;28;20034;-68
2022/07/16 09:02:01;;;;;;;4.57;0.40;;;;;;;16.96;34.26;102220.91;4988842;28;20140;-69
2022/07/16 09:04:26;;;;;;;3.05;0.35;;;;;;;15.90;36.09;102226.28;4984705;28;20040;-68
2022/07/16 09:06:52;;;;;;;6.78;0.20;;;;;;;16.50;35.33;102230.84;4998292;28;20617;-68
2022/07/16 09:09:18;;;;;;;4.93;0.30;;;;;;;17.40;33.70;102231.16;4989455;28;20472;-68
2022/07/16 09:11:44;;;;;;;5.85;0.75;;;;;;;16.90;34.94;102239.66;4996330;28;20517;-68
2022/07/16 09:14:13;;;;;;;7.25;0.50;;;;;;;17.13;34.50;102244.72;4987499;28;20037;-68
2022/07/16 09:16:39;;;;;;;4.38;0.17;;;;;;;17.51;33.88;102244.72;5001998;28;20061;-68
2022/07/16 09:19:11;;;;;;;5.03;0.30;;;;;;;18.17;32.90;102243.28;4988547;28;20037;-68
2022/07/16 09:21:57;;;;;;;7.18;0.47;;;;;;;20.26;29.51;102242.47;4986883;28;20073;-69
2022/07/16 09:24:32;;;;;;;2.63;0.20;;;;;;;20.80;27.13;102247.16;4986080;28;20030;-69
2022/07/16 09:27:07;;;;;;;6.05;0.10;;;;;;;20.67;26.46;102247.09;4984737;28;20107;-68
2022/07/16 09:29:44;;;;;;;2.67;0.13;;;;;;;21.60;25.44;102255.44;4987355;28;20038;-68
2022/07/16 09:32:10;;;;;;;4.90;0.30;;;;;;;21.28;25.70;102256.53;5000826;28;20103;-68
2022/07/16 09:34:35;;;;;;;4.22;0.10;;;;;;;21.83;25.38;102260.13;4986187;28;20087;-68
2022/07/16 09:37:03;;;;;;;4.72;0.45;;;;;;;23.20;24.92;102259.53;4982597;28;20747;-69
2022/07/16 09:39:31;;;;;;;4.93;0.30;;;;;;;21.64;25.67;102257.81;4989324;28;20040;-68
2022/07/16 09:41:57;;;;;;;8.30;0.40;;;;;;;20.51;27.95;102266.63;4987449;28;20423;-68
2022/07/16 09:44:33;;;;;;;7.32;0.47;;;;;;;19.87;28.55;102268.59;4984589;28;20391;-68
2022/07/16 09:47:11;;;;;;;1.40;0.15;;;;;;;19.17;29.06;102277.84;4999106;28;20511;-68
2022/07/16 09:49:38;;;;;;;3.10;0.73;;;;;;;17.98;30.88;102275.97;4982072;28;20034;-68
2022/07/16 09:52:06;;;;;;;3.45;0.20;;;;;;;17.92;30.99;102286.84;4998438;28;20103;-68
2022/07/16 09:54:34;;;;;;;6.75;0.40;;;;;;;18.36;30.42;102291.72;4986390;28;20034;-69
2022/07/16 09:57:15;;;;;;;3.28;0.20;;;;;;;18.44;30.87;102286.91;4978741;28;20030;-68
2022/07/16 09:59:42;;;;;;;3.38;0.20;;;;;;;19.01;28.42;102291.03;4980390;28;20527;-68
2022/07/16 10:02:07;;;;;;;5.57;0.10;;;;;;;19.21;29.98;102296.13;4984887;28;20816;-68
2022/07/16 10:04:34;;;;;;;4.65;0.13;;;;;;;18.22;31.05;102295.06;4988141;28;20059;-68
2022/07/16 10:07:00;;;;;;;4.03;0.30;;;;;;;18.79;30.82;102302.75;4983480;28;20390;-68
2022/07/16 10:09:25;;;;;;;2.58;0.50;;;;;;;18.93;29.48;102295.91;4989967;28;20038;-68
2022/07/16 10:11:56;;;;;;;4.75;0.30;;;;;;;19.28;29.88;102292.22;4985500;28;20042;-69
2022/07/16 10:14:22;;;;;;;3.50;0.40;;;;;;;18.22;31.21;102302.16;4983102;28;20034;-67
2022/07/16 10:16:47;;;;;;;3.28;0.50;;;;;;;18.36;31.32;102307.59;5000131;28;20045;-68
2022/07/16 10:19:14;;;;;;;5.90;0.30;;;;;;;18.77;31.07;102312.56;4985951;28;20583;-68
2022/07/16 10:21:41;;;;;;;3.63;0.30;;;;;;;19.00;30.54;102302.59;4998426;28;20044;-68
2022/07/16 10:24:10;;;;;;;3.10;0.30;;;;;;;19.82;29.43;102305.16;5000456;28;20031;-68
2022/07/16 10:26:36;;;;;;;9.55;0.68;;;;;;;18.77;30.25;102312.56;4990018;28;20134;-68
2022/07/16 10:29:04;;;;;;;3.08;0.30;;;;;;;18.77;31.48;102323.16;4983893;28;20042;-68
2022/07/16 10:34:40;;;;;;;3.08;0.40;;;;;;;17.85;32.49;102327.75;4991704;28;20038;-67
2022/07/16 10:37:10;;;;;;;1.63;0.52;;;;;;;17.27;34.16;102325.13;4986763;28;20036;-67
2022/07/16 10:40:04;;;;;;;3.30;0.43;;;;;;;17.04;34.12;102337.59;4990384;28;20038;-66
2022/07/16 10:42:30;;;;;;;3.97;0.60;;;;;;;16.48;34.80;102346.16;4997983;28;20128;-66
2022/07/16 10:44:55;;;;;;;3.08;0.25;;;;;;;16.94;34.34;102339.78;4988828;28;20618;-67
2022/07/16 10:47:41;;;;;;;4.57;0.30;;;;;;;18.18;32.29;102345.53;5003172;28;20594;-67
2022/07/16 10:50:19;;;;;;;4.05;0.30;;;;;;;19.14;32.62;102347.75;4990094;28;20042;-67
2022/07/16 10:52:46;;;;;;;1.95;0.20;;;;;;;18.68;30.15;102355.44;4999991;28;20479;-66
2022/07/16 10:55:17;;;;;;;2.63;0.35;;;;;;;17.34;31.08;102353.88;5003972;28;20084;-66
2022/07/16 10:57:43;;;;;;;1.80;0.00;;;;;;;17.94;30.88;102355.53;4989525;28;20054;-67
2022/07/16 11:00:09;;;;;;;2.78;0.17;;;;;;;18.68;29.51;102355.44;4990138;28;20031;-67
2022/07/16 11:02:40;;;;;;;4.22;0.50;;;;;;;18.45;29.32;102354.81;4988000;28;20037;-66
2022/07/16 11:05:06;;;;;;;6.70;0.10;;;;;;;19.30;29.24;102355.72;4991784;28;20033;-66
2022/07/16 11:07:35;;;;;;;3.70;0.22;;;;;;;17.96;29.21;102362.47;4990045;28;21055;-66
2022/07/16 11:10:02;;;;;;;3.80;0.20;;;;;;;18.48;28.60;102365.22;4989837;28;20231;-66
2022/07/16 11:12:31;;;;;;;3.53;0.20;;;;;;;19.09;26.74;102365.69;4985243;28;20037;-67
2022/07/16 11:15:00;;;;;;;0.70;0.00;;;;;;;20.11;25.66;102369.81;4988199;28;20034;-66
2022/07/16 11:17:29;;;;;;;1.02;0.10;;;;;;;19.78;25.64;102369.09;4989495;28;20045;-66
2022/07/16 11:20:00;;;;;;;1.77;0.10;;;;;;;20.07;24.98;102380.72;4983004;28;20042;-66
2022/07/16 11:22:27;;;;;;;1.25;0.10;;;;;;;20.24;25.55;102379.75;4989211;28;20096;-66
2022/07/16 11:25:01;;;;;;;1.95;0.10;;;;;;;20.71;25.16;102382.31;4989053;28;20039;-66
2022/07/16 11:27:35;;;;;;;2.10;0.15;;;;;;;19.61;25.60;102376.16;5004760;28;20732;-65
2022/07/16 11:30:03;;;;;;;3.17;0.20;;;;;;;18.64;26.84;102388.28;4988874;28;20944;-65